Time;durP1;ratioP1;P1;durP2;ratioP2;P2;SDS_P1;SDS_P2;PMS_P1;PMS_P2;Temp;Humidity;BMP_temperature;BMP_pressure;BME280_temperature;BME280_humidity;BME280_pressure;Samples;Min_cycle;Max_cycle;Signal;HPM_P1;HPM_P2
2022/08/28 00:00:48;;;;;;;14.30;12.80;;;;;;;32.02;81.33;99797.54;110959;1248;21965;-78
2022/08/28 00:03:17;;;;;;;18.90;13.60;;;;;;;32.00;81.19;99799.17;110763;1250;21953;-77
2022/08/28 00:05:46;;;;;;;15.90;13.60;;;;;;;32.01;81.02;99802.95;110888;1248;23029;-79
2022/08/28 00:08:16;;;;;;;16.40;15.00;;;;;;;31.91;81.94;99809.23;110964;1251;24271;-77
2022/08/28 00:10:46;;;;;;;18.30;15.10;;;;;;;31.88;82.76;99810.17;110837;1250;21979;-78
2022/08/28 00:13:19;;;;;;;20.30;16.30;;;;;;;31.87;83.64;99808.75;110928;1250;21953;-77
2022/08/28 00:15:52;;;;;;;16.70;15.10;;;;;;;31.89;84.13;99809.52;110959;1248;23583;-78
2022/08/28 00:18:22;;;;;;;18.80;15.50;;;;;;;31.90;84.41;99808.02;110972;1247;21952;-77
2022/08/28 00:20:51;;;;;;;17.40;15.60;;;;;;;32.05;84.17;99808.02;110955;1250;21962;-77
2022/08/28 00:23:22;;;;;;;18.10;16.20;;;;;;;31.88;85.10;99809.40;110943;1247;23732;-78
2022/08/28 00:25:53;;;;;;;18.60;16.60;;;;;;;31.88;85.42;99807.23;110850;1248;23584;-78
2022/08/28 00:28:25;;;;;;;18.20;16.50;;;;;;;31.85;86.16;99808.55;110967;1248;22036;-77
2022/08/28 00:30:57;;;;;;;19.70;18.00;;;;;;;31.88;86.65;99805.83;110739;1248;22010;-77
2022/08/28 00:33:32;;;;;;;24.10;22.00;;;;;;;31.88;87.11;99805.83;111179;1247;21956;-78
2022/08/28 00:36:02;;;;;;;18.90;17.10;;;;;;;31.97;86.75;99803.42;111051;1247;23029;-77
2022/08/28 00:38:31;;;;;;;18.10;16.30;;;;;;;31.98;86.64;99799.88;111241;1248;21958;-79
2022/08/28 00:41:02;;;;;;;20.00;17.50;;;;;;;32.04;85.80;99798.42;110568;1254;23057;-77
2022/08/28 00:43:44;;;;;;;21.20;17.60;;;;;;;32.10;85.49;99795.61;110510;1254;21988;-78
2022/08/28 00:46:20;;;;;;;19.40;17.40;;;;;;;32.13;84.91;99795.73;110497;1254;23573;-78
2022/08/28 00:48:50;;;;;;;18.00;16.10;;;;;;;32.01;85.22;99796.09;110453;1254;21980;-79
2022/08/28 00:54:08;;;;;;;18.70;16.90;;;;;;;31.91;86.20;99799.02;110200;1259;23030;-78
2022/08/28 00:56:39;;;;;;;18.80;17.00;;;;;;;31.90;86.77;99797.63;109684;1260;23101;-78
2022/08/28 00:59:14;;;;;;;20.90;19.00;;;;;;;31.94;86.64;99798.06;110266;1254;22749;-78
2022/08/28 01:01:46;;;;;;;20.30;16.50;;;;;;;32.08;85.63;99794.92;110432;1254;22000;-78
2022/08/28 01:04:18;;;;;;;19.30;17.40;;;;;;;32.06;86.21;99797.27;110359;1254;21958;-78
2022/08/28 01:06:52;;;;;;;18.70;16.80;;;;;;;32.01;87.06;99798.37;110329;1257;23757;-78
2022/08/28 01:09:30;;;;;;;20.00;18.10;;;;;;;32.00;88.28;99803.33;109804;1257;23740;-79
2022/08/28 01:12:28;;;;;;;20.60;18.40;;;;;;;31.87;89.21;99812.24;110089;1253;21963;-77
2022/08/28 01:15:01;;;;;;;22.30;20.30;;;;;;;31.82;90.93;99809.59;110546;1254;21966;-77
2022/08/28 01:17:33;;;;;;;20.00;18.00;;;;;;;31.82;91.39;99809.89;110334;1257;22831;-78
2022/08/28 01:20:15;;;;;;;20.20;18.40;;;;;;;31.82;91.87;99817.80;109876;1257;23021;-79
2022/08/28 01:23:19;;;;;;;21.50;19.30;;;;;;;31.84;91.80;99812.34;109176;1264;22346;-78
2022/08/28 01:25:51;;;;;;;22.40;20.20;;;;;;;31.91;91.49;99805.64;109282;1265;23709;-78
2022/08/28 01:28:23;;;;;;;20.70;18.50;;;;;;;31.95;91.34;99812.77;109194;1266;22017;-78
2022/08/28 01:30:52;;;;;;;23.00;20.80;;;;;;;31.99;90.90;99813.96;108903;1267;21978;-78
2022/08/28 01:33:22;;;;;;;22.90;20.80;;;;;;;32.07;90.20;99809.48;109209;1265;23776;-78
2022/08/28 01:35:56;;;;;;;22.80;19.80;;;;;;;31.81;92.02;99813.07;109568;1260;23055;-78
2022/08/28 01:38:26;;;;;;;19.00;17.40;;;;;;;31.71;93.60;99811.87;109814;1260;23113;-78
2022/08/28 01:40:56;;;;;;;21.00;18.90;;;;;;;31.67;94.20;99811.45;109470;1260;22061;-78
2022/08/28 01:43:26;;;;;;;20.30;18.10;;;;;;;31.58;94.12;99810.25;110212;1254;23109;-77
2022/08/28 01:46:05;;;;;;;20.70;18.20;;;;;;;31.87;92.24;99810.30;110582;1255;21998;-78
2022/08/28 01:48:41;;;;;;;20.20;18.20;;;;;;;32.12;90.16;99811.98;109760;1260;23643;-78
2022/08/28 01:51:13;;;;;;;19.30;17.50;;;;;;;32.16;88.35;99812.83;109992;1260;21992;-78
2022/08/28 01:53:42;;;;;;;21.30;18.90;;;;;;;31.93;90.00;99813.61;109946;1260;23650;-78
2022/08/28 01:56:15;;;;;;;22.40;18.00;;;;;;;31.71;92.31;99811.22;109217;1266;22755;-78
2022/08/28 01:58:46;;;;;;;19.40;17.50;;;;;;;31.61;92.56;99812.70;108928;1264;23700;-78
2022/08/28 02:01:20;;;;;;;20.40;17.10;;;;;;;31.32;92.57;99815.20;109245;1264;22996;-77
2022/08/28 02:03:51;;;;;;;20.20;18.30;;;;;;;31.14;93.62;99820.05;109355;1263;23065;-78
2022/08/28 02:06:21;;;;;;;20.60;17.70;;;;;;;30.99;96.08;99820.74;109350;1259;21966;-78
2022/08/28 02:08:54;;;;;;;22.50;17.40;;;;;;;30.97;97.68;99819.94;109875;1260;23671;-79
2022/08/28 02:11:25;;;;;;;18.80;17.00;;;;;;;30.97;98.34;99823.44;109911;1259;21996;-79
2022/08/28 02:13:54;;;;;;;20.10;18.10;;;;;;;31.14;97.09;99830.58;109796;1254;22730;-78
2022/08/28 02:16:24;;;;;;;19.80;18.10;;;;;;;31.16;96.87;99828.40;110576;1247;21953;-79
2022/08/28 02:18:54;;;;;;;20.30;18.30;;;;;;;31.18;97.01;99824.67;111191;1248;23564;-77
2022/08/28 02:21:24;;;;;;;22.10;20.00;;;;;;;31.17;97.23;99824.95;110932;1247;23677;-78
2022/08/28 02:23:53;;;;;;;20.80;18.90;;;;;;;31.17;98.01;99825.67;110974;1247;23561;-78
2022/08/28 02:26:22;;;;;;;19.70;18.00;;;;;;;31.20;98.23;99830.14;110501;1254;21958;-78
2022/08/28 02:28:51;;;;;;;21.50;19.50;;;;;;;31.23;97.32;99827.27;110461;1253;21963;-77
2022/08/28 02:31:20;;;;;;;21.40;19.60;;;;;;;31.36;96.95;99831.46;110356;1253;21975;-78
2022/08/28 02:33:49;;;;;;;21.30;19.10;;;;;;;31.35;97.04;99833.30;110420;1253;21977;-78
2022/08/28 02:36:19;;;;;;;22.10;19.90;;;;;;;31.34;97.32;99829.76;110520;1253;22357;-78
2022/08/28 02:38:50;;;;;;;21.30;19.30;;;;;;;31.39;97.92;99833.62;110679;1253;23585;-78
2022/08/28 02:41:25;;;;;;;22.80;19.60;;;;;;;31.40;97.31;99833.61;110650;1253;24401;-78
2022/08/28 02:43:54;;;;;;;22.20;19.90;;;;;;;31.54;96.48;99831.52;110526;1247;23589;-77
2022/08/28 02:46:23;;;;;;;22.10;20.30;;;;;;;31.56;96.87;99831.63;110962;1247;22007;-77
2022/08/28 02:48:53;;;;;;;21.20;19.30;;;;;;;31.51;97.21;99829.17;111215;1248;21957;-78
2022/08/28 02:51:24;;;;;;;22.40;20.40;;;;;;;31.58;96.99;99825.13;111247;1247;23666;-78
2022/08/28 02:53:53;;;;;;;22.60;20.40;;;;;;;31.55;97.03;99819.77;111018;1247;23665;-78
2022/08/28 02:56:23;;;;;;;24.50;21.70;;;;;;;31.48;97.87;99816.91;111033;1248;23625;-77
2022/08/28 02:58:53;;;;;;;24.90;21.90;;;;;;;31.61;97.00;99814.05;111156;1247;21950;-78
2022/08/28 03:01:24;;;;;;;;;;;;;;;31.79;95.09;99814.40;111158;1248;23549;-77
2022/08/28 03:03:53;;;;;;;22.90;20.80;;;;;;;31.94;93.75;99815.39;110967;1247;22101;-78
2022/08/28 03:06:22;;;;;;;24.90;22.30;;;;;;;31.83;94.98;99818.61;110978;1248;22040;-77
2022/08/28 03:08:51;;;;;;;23.10;21.00;;;;;;;31.58;97.07;99821.73;110485;1255;21956;-79
2022/08/28 03:11:21;;;;;;;22.70;20.70;;;;;;;31.73;95.88;99819.41;110638;1251;23667;-79
2022/08/28 03:13:51;;;;;;;23.90;21.80;;;;;;;31.86;94.66;99815.89;110256;1257;21966;-78
2022/08/28 03:16:24;;;;;;;23.30;21.30;;;;;;;31.73;95.43;99815.20;109167;1265;21993;-78
2022/08/28 03:18:54;;;;;;;23.70;21.20;;;;;;;31.83;94.83;99817.84;109456;1265;22027;-78
2022/08/28 03:21:23;;;;;;;23.00;21.00;;;;;;;32.01;93.77;99812.73;108678;1271;21991;-78
2022/08/28 03:23:52;;;;;;;23.20;21.20;;;;;;;32.12;92.03;99812.55;108934;1270;21978;-78
2022/08/28 03:26:22;;;;;;;23.10;21.20;;;;;;;31.95;92.98;99810.64;108857;1267;23072;-77
2022/08/28 03:28:53;;;;;;;23.70;21.40;;;;;;;31.82;94.33;99818.13;109291;1266;23052;-78
2022/08/28 03:31:28;;;;;;;24.40;22.10;;;;;;;32.00;93.89;99817.41;108960;1268;21986;-77
2022/08/28 03:33:59;;;;;;;23.00;20.40;;;;;;;31.85;94.85;99819.67;109030;1259;21998;-78
2022/08/28 03:36:28;;;;;;;24.60;22.30;;;;;;;31.79;95.10;99818.77;109854;1260;23797;-78
2022/08/28 03:39:01;;;;;;;23.50;21.10;;;;;;;31.77;94.91;99820.23;110017;1253;21968;-78
2022/08/28 03:41:31;;;;;;;24.20;22.00;;;;;;;31.74;94.62;99818.77;110402;1255;22057;-78
2022/08/28 03:44:02;;;;;;;24.10;21.90;;;;;;;31.65;95.89;99828.66;109937;1259;24275;-77
2022/08/28 03:46:33;;;;;;;25.40;22.80;;;;;;;31.73;95.66;99831.59;110068;1259;21959;-79
2022/08/28 03:49:03;;;;;;;23.80;21.60;;;;;;;31.66;95.99;99831.65;110188;1253;22215;-77
2022/08/28 03:51:33;;;;;;;24.70;22.60;;;;;;;31.65;96.32;99835.45;110457;1257;22460;-77
2022/08/28 03:54:03;;;;;;;24.50;22.40;;;;;;;31.63;96.31;99836.15;110363;1257;21975;-78
2022/08/28 03:56:32;;;;;;;23.50;21.20;;;;;;;31.71;96.02;99837.29;110368;1254;22311;-79
2022/08/28 03:59:04;;;;;;;24.10;22.00;;;;;;;31.61;96.96;99835.73;110325;1254;23688;-78
2022/08/28 04:01:33;;;;;;;23.50;21.60;;;;;;;31.54;97.28;99836.81;110549;1251;21989;-78
2022/08/28 04:04:03;;;;;;;25.10;22.90;;;;;;;31.71;96.22;99837.27;110921;1247;22208;-78
2022/08/28 04:06:32;;;;;;;25.10;22.80;;;;;;;31.70;95.87;99835.45;110387;1253;22116;-77
2022/08/28 04:09:04;;;;;;;24.30;22.20;;;;;;;31.75;95.89;99835.64;110467;1253;22035;-77
2022/08/28 04:11:41;;;;;;;25.50;23.40;;;;;;;31.75;96.03;99836.35;110472;1254;21971;-77
2022/08/28 04:14:10;;;;;;;26.00;23.40;;;;;;;31.49;97.56;99837.38;110485;1253;21964;-77
2022/08/28 04:16:40;;;;;;;26.80;24.10;;;;;;;31.67;96.47;99841.81;110329;1254;21974;-78
2022/08/28 04:19:09;;;;;;;27.20;24.60;;;;;;;31.95;94.46;99846.00;110435;1254;21959;-78
2022/08/28 04:21:38;;;;;;;27.80;25.20;;;;;;;31.98;93.54;99847.24;110402;1253;23194;-78
2022/08/28 04:24:09;;;;;;;27.90;25.20;;;;;;;31.95;94.84;99852.70;110558;1248;21947;-79
2022/08/28 04:26:39;;;;;;;31.30;28.30;;;;;;;31.86;96.42;99854.27;110853;1253;22151;-79
2022/08/28 04:29:08;;;;;;;27.90;25.50;;;;;;;31.91;95.96;99851.70;110485;1254;22069;-79
2022/08/28 04:31:38;;;;;;;27.20;24.60;;;;;;;31.88;96.44;99853.97;109827;1260;21981;-78
2022/08/28 04:34:10;;;;;;;27.80;25.00;;;;;;;31.99;95.74;99859.62;109700;1260;23121;-78
2022/08/28 04:36:40;;;;;;;27.60;25.00;;;;;;;32.16;94.14;99864.20;109914;1262;23065;-78
2022/08/28 04:39:09;;;;;;;30.60;27.50;;;;;;;32.07;95.19;99862.31;109931;1260;23679;-79
2022/08/28 04:41:39;;;;;;;28.50;26.10;;;;;;;32.16;94.74;99861.20;109797;1260;23060;-78
2022/08/28 04:44:08;;;;;;;30.90;27.70;;;;;;;32.15;94.93;99862.89;109704;1254;21980;-78
2022/08/28 04:46:37;;;;;;;28.00;25.70;;;;;;;32.04;95.26;99860.06;109864;1259;22005;-78
2022/08/28 04:49:07;;;;;;;29.60;27.00;;;;;;;32.08;94.94;99863.54;109474;1253;23054;-78
2022/08/28 04:51:36;;;;;;;29.90;27.20;;;;;;;32.04;95.75;99856.08;110503;1253;22071;-78
2022/08/28 04:54:09;;;;;;;28.60;26.10;;;;;;;32.20;94.74;99862.33;110354;1254;22840;-78
2022/08/28 04:56:40;;;;;;;29.50;26.80;;;;;;;32.24;94.62;99868.75;110415;1253;21972;-79
2022/08/28 04:59:10;;;;;;;30.00;27.40;;;;;;;32.17;94.76;99867.44;110382;1254;23067;-78
2022/08/28 05:01:41;;;;;;;32.30;29.30;;;;;;;32.16;96.27;99865.90;110591;1254;22505;-79
2022/08/28 05:04:11;;;;;;;31.10;28.50;;;;;;;32.25;95.78;99866.62;110088;1259;24138;-79
2022/08/28 05:06:45;;;;;;;30.60;28.00;;;;;;;32.29;95.48;99868.13;110001;1259;21979;-78
2022/08/28 05:09:18;;;;;;;31.90;28.80;;;;;;;32.28;95.66;99869.10;109172;1265;21988;-78
2022/08/28 05:11:48;;;;;;;37.40;33.50;;;;;;;32.40;94.66;99869.38;109564;1259;21989;-78
2022/08/28 05:14:19;;;;;;;33.80;31.00;;;;;;;32.55;93.70;99867.73;110023;1259;22388;-78
2022/08/28 05:16:51;;;;;;;;;;;;;;;32.59;93.22;99873.23;109372;1265;23580;-78
2022/08/28 05:19:21;;;;;;;32.80;30.00;;;;;;;32.66;93.60;99874.45;109536;1264;21990;-78
2022/08/28 05:21:51;;;;;;;34.40;31.30;;;;;;;32.51;95.05;99881.20;108816;1267;21972;-78
2022/08/28 05:24:21;;;;;;;34.10;31.00;;;;;;;32.41;95.77;99880.27;109182;1266;22038;-80
2022/08/28 05:26:50;;;;;;;33.50;30.50;;;;;;;32.43;96.33;99879.34;109282;1260;22160;-77
2022/08/28 05:29:19;;;;;;;34.80;31.70;;;;;;;32.74;93.72;99879.48;109850;1260;22082;-77
2022/08/28 05:31:51;;;;;;;34.80;32.00;;;;;;;32.70;94.46;99880.17;109130;1265;23623;-77
2022/08/28 05:34:21;;;;;;;35.80;32.80;;;;;;;32.63;95.59;99886.85;109369;1261;23088;-78
2022/08/28 05:36:50;;;;;;;35.30;32.00;;;;;;;32.60;96.23;99888.21;109289;1266;22132;-77
2022/08/28 05:39:23;;;;;;;34.90;31.50;;;;;;;32.72;96.20;99889.50;109559;1261;23892;-77
2022/08/28 05:41:54;;;;;;;37.30;34.10;;;;;;;32.77;95.10;99888.13;109875;1259;21974;-77
2022/08/28 05:44:23;;;;;;;36.90;33.70;;;;;;;32.90;94.05;99886.16;110216;1256;23191;-77
2022/08/28 05:46:52;;;;;;;35.90;32.70;;;;;;;33.03;93.42;99889.90;110367;1256;21993;-78
2022/08/28 05:49:21;;;;;;;37.60;34.10;;;;;;;33.08;92.55;99898.02;110300;1254;22027;-79
2022/08/28 05:54:06;;;;;;;38.70;35.20;;;;;;;32.47;94.25;99912.25;107760;1286;544525;-84
2022/08/28 05:56:44;;;;;;;38.60;35.30;;;;;;;32.98;91.76;99912.95;109732;1264;22036;-83
2022/08/28 05:59:17;;;;;;;38.70;35.40;;;;;;;32.82;94.30;99910.29;109748;1263;21969;-84
2022/08/28 06:01:49;;;;;;;39.60;36.10;;;;;;;32.71;95.42;99910.06;109650;1264;23634;-84
2022/08/28 06:04:25;;;;;;;38.60;35.20;;;;;;;32.70;96.97;99911.44;109381;1263;22021;-82
2022/08/28 06:07:10;;;;;;;40.60;37.00;;;;;;;32.72;97.77;99915.12;108278;1264;1494288;-81
2022/08/28 06:09:42;;;;;;;39.90;36.40;;;;;;;32.76;96.30;99913.70;110566;1257;21972;-82
2022/08/28 06:12:11;;;;;;;40.10;36.60;;;;;;;32.85;94.19;99916.75;109600;1263;22327;-81
2022/08/28 06:14:44;;;;;;;39.70;36.20;;;;;;;32.75;93.81;99915.45;109101;1270;21994;-82
2022/08/28 06:17:22;;;;;;;40.70;37.30;;;;;;;32.81;93.11;99916.27;109525;1269;21944;-85
2022/08/28 06:19:57;;;;;;;40.00;36.00;;;;;;;32.75;93.31;99909.21;108860;1271;21982;-84
2022/08/28 06:22:31;;;;;;;41.30;37.70;;;;;;;32.60;94.32;99911.38;108944;1271;22089;-84
2022/08/28 06:25:17;;;;;;;;;;;;;;;;;;;;;
2022/08/28 06:28:08;;;;;;;42.60;38.70;;;;;;;32.49;96.61;99903.64;108855;1273;22769;-82
2022/08/28 06:30:46;;;;;;;41.40;37.20;;;;;;;32.56;96.92;99904.38;109101;1268;22043;-82
2022/08/28 06:33:39;;;;;;;45.20;40.90;;;;;;;32.68;97.24;99909.30;109547;1264;22118;-79
2022/08/28 06:36:11;;;;;;;43.60;39.50;;;;;;;32.61;97.83;99913.70;109375;1265;22203;-86
2022/08/28 06:38:51;;;;;;;46.00;40.70;;;;;;;32.48;98.32;99917.27;109199;1268;22002;-85
2022/08/28 06:41:23;;;;;;;43.60;39.80;;;;;;;32.55;98.42;99918.15;109194;1270;23065;-84
2022/08/28 06:43:54;;;;;;;40.90;37.20;;;;;;;32.82;96.02;99918.93;109424;1266;21991;-81
2022/08/28 06:46:27;;;;;;;41.40;37.40;;;;;;;32.85;95.47;99919.09;109610;1263;21988;-81
2022/08/28 06:49:09;;;;;;;41.30;37.40;;;;;;;32.75;95.86;99919.48;109497;1264;21981;-81
2022/08/28 06:51:41;;;;;;;47.00;42.80;;;;;;;32.44;97.43;99924.39;109607;1264;21989;-82
2022/08/28 06:54:10;;;;;;;41.70;37.70;;;;;;;32.47;96.46;99923.02;109768;1259;21963;-82
2022/08/28 06:56:42;;;;;;;43.60;39.50;;;;;;;32.32;95.97;99924.52;110386;1257;23640;-81
2022/08/28 06:59:14;;;;;;;44.70;40.60;;;;;;;31.57;99.67;99925.19;110135;1256;21968;-78
2022/08/28 07:01:53;;;;;;;43.80;39.40;;;;;;;31.59;100.00;99925.95;109689;1261;21977;-78
2022/08/28 07:04:28;;;;;;;46.50;41.80;;;;;;;31.66;100.00;99928.64;110058;1256;21951;-83
2022/08/28 07:07:10;;;;;;;44.20;39.90;;;;;;;31.60;100.00;99932.58;109573;1264;22007;-86
2022/08/28 07:10:08;;;;;;;42.20;37.70;;;;;;;31.44;100.00;99932.18;109549;1263;22283;-80
2022/08/28 07:12:42;;;;;;;44.60;40.10;;;;;;;31.39;100.00;99934.16;109435;1264;23627;-81
2022/08/28 07:15:17;;;;;;;45.30;40.70;;;;;;;31.39;100.00;99937.95;109099;1268;23022;-80
2022/08/28 07:17:48;;;;;;;43.80;39.50;;;;;;;31.45;100.00;99939.73;108885;1273;22056;-80
2022/08/28 07:20:18;;;;;;;44.70;40.40;;;;;;;31.49;100.00;99938.30;108567;1273;23152;-81
2022/08/28 07:22:51;;;;;;;47.30;43.00;;;;;;;31.58;100.00;99937.05;108575;1276;22005;-80
2022/08/28 07:25:27;;;;;;;47.90;43.40;;;;;;;31.69;100.00;99933.52;108668;1273;22005;-80
2022/08/28 07:27:56;;;;;;;48.40;43.80;;;;;;;31.71;100.00;99934.55;108862;1273;23661;-80
2022/08/28 07:30:25;;;;;;;49.30;44.20;;;;;;;31.76;100.00;99935.66;109032;1273;22001;-80
2022/08/28 07:32:56;;;;;;;;;;;;;;;31.86;100.00;99935.10;108740;1273;21968;-80
2022/08/28 07:35:28;;;;;;;44.60;39.90;;;;;;;31.87;100.00;99940.18;108973;1270;22039;-80
2022/08/28 07:38:03;;;;;;;46.70;41.70;;;;;;;31.81;100.00;99943.20;109055;1270;22204;-84
2022/08/28 07:40:51;;;;;;;46.80;42.20;;;;;;;31.92;100.00;99943.71;109901;1258;21972;-81
2022/08/28 07:46:12;;;;;;;45.60;41.30;;;;;;;31.89;100.00;99947.52;109633;1259;22173;-81
2022/08/28 07:48:41;;;;;;;45.80;41.10;;;;;;;31.85;100.00;99945.70;109319;1267;22051;-80
2022/08/28 07:51:11;;;;;;;47.80;43.30;;;;;;;32.01;100.00;99949.39;109447;1266;22979;-81
2022/08/28 07:53:42;;;;;;;47.00;42.50;;;;;;;32.12;100.00;99953.54;108792;1270;21985;-80
2022/08/28 07:56:12;;;;;;;46.50;41.70;;;;;;;32.02;100.00;99952.70;108696;1276;21997;-80
2022/08/28 07:58:44;;;;;;;48.70;44.00;;;;;;;32.04;100.00;99950.96;108493;1276;23707;-79
2022/08/28 08:01:16;;;;;;;49.90;44.80;;;;;;;32.14;100.00;99949.75;108609;1273;23068;-81
2022/08/28 08:03:49;;;;;;;48.40;43.40;;;;;;;32.18;100.00;99951.38;108939;1270;22114;-81
2022/08/28 08:06:32;;;;;;;47.60;42.90;;;;;;;32.22;100.00;99952.50;109137;1266;22415;-81
2022/08/28 08:09:05;;;;;;;45.50;40.90;;;;;;;32.18;100.00;99948.58;109173;1270;21979;-82
2022/08/28 08:11:35;;;;;;;47.90;43.20;;;;;;;32.20;100.00;99947.36;108895;1270;22301;-80
2022/08/28 08:14:06;;;;;;;46.70;42.30;;;;;;;32.30;100.00;99955.80;109057;1263;21975;-80
2022/08/28 08:16:46;;;;;;;44.90;40.50;;;;;;;32.43;100.00;99963.26;109376;1264;22150;-81
2022/08/28 08:19:19;;;;;;;46.40;42.30;;;;;;;32.35;100.00;99962.41;109129;1267;22411;-81
2022/08/28 08:21:51;;;;;;;46.80;42.30;;;;;;;32.37;100.00;99963.24;109162;1267;22000;-81
2022/08/28 08:24:29;;;;;;;46.80;42.40;;;;;;;32.40;100.00;99967.29;108895;1273;23605;-80
2022/08/28 08:27:02;;;;;;;46.20;41.70;;;;;;;32.40;100.00;99968.16;108624;1276;22029;-83
2022/08/28 08:29:36;;;;;;;42.70;38.70;;;;;;;32.47;100.00;99968.27;108712;1276;22001;-81
2022/08/28 08:32:10;;;;;;;43.40;39.40;;;;;;;32.54;100.00;99970.52;108531;1279;22027;-82
2022/08/28 08:34:48;;;;;;;45.20;41.00;;;;;;;32.60;100.00;99974.81;108370;1279;22432;-80
2022/08/28 08:37:21;;;;;;;42.50;38.50;;;;;;;32.60;100.00;99980.70;108496;1279;22058;-84
2022/08/28 08:39:52;;;;;;;43.80;39.40;;;;;;;32.53;100.00;99984.54;108648;1276;22732;-83
2022/08/28 08:42:28;;;;;;;43.90;39.80;;;;;;;32.54;100.00;99987.30;109259;1273;22016;-86
2022/08/28 08:45:12;;;;;;;43.20;39.40;;;;;;;32.52;100.00;99991.52;109196;1264;21972;-83
2022/08/28 08:47:50;;;;;;;43.10;39.20;;;;;;;32.59;100.00;99998.52;109631;1267;21985;-84
2022/08/28 08:51:58;;;;;;;46.10;41.90;;;;;;;32.75;100.00;100000.11;86314;1291;5261979;-83
2022/08/28 08:55:20;;;;;;;47.30;43.20;;;;;;;32.44;100.00;100001.86;109379;1262;376016;-84
2022/08/28 08:58:31;;;;;;;47.90;42.50;;;;;;;33.09;99.45;100000.83;110426;1256;22024;-81
2022/08/28 09:01:31;;;;;;;42.90;39.10;;;;;;;33.25;98.41;99998.09;110518;1256;23743;-82
2022/08/28 09:04:47;;;;;;;45.10;40.40;;;;;;;33.10;97.82;100001.86;108712;1257;1838476;-82
2022/08/28 09:07:24;;;;;;;42.20;38.50;;;;;;;33.25;98.29;100007.52;110278;1259;21991;-81
2022/08/28 09:09:56;;;;;;;42.90;38.60;;;;;;;33.32;97.76;100007.28;109989;1259;21971;-81
2022/08/28 09:12:30;;;;;;;43.30;38.50;;;;;;;32.97;99.53;100008.13;109829;1259;23445;-82
2022/08/28 09:15:19;;;;;;;41.20;37.60;;;;;;;32.93;99.89;100011.19;109506;1261;22867;-82
2022/08/28 09:17:54;;;;;;;40.30;36.70;;;;;;;32.91;99.95;100010.54;109710;1262;21975;-82
2022/08/28 09:20:27;;;;;;;41.50;37.70;;;;;;;32.95;100.00;100009.31;109089;1268;21995;-82
2022/08/28 09:23:01;;;;;;;40.50;36.80;;;;;;;32.98;100.00;100007.83;109397;1264;22429;-82
2022/08/28 09:25:43;;;;;;;40.00;36.20;;;;;;;33.02;99.74;100003.66;109532;1264;22479;-82
2022/08/28 09:28:22;;;;;;;40.50;36.90;;;;;;;33.11;99.85;99998.84;109995;1261;22472;-81
2022/08/28 09:31:00;;;;;;;39.20;35.70;;;;;;;33.20;100.00;100002.04;109123;1270;23047;-82
2022/08/28 09:33:52;;;;;;;40.90;37.30;;;;;;;33.32;100.00;100007.59;108926;1270;23716;-83
2022/08/28 09:36:35;;;;;;;39.50;36.00;;;;;;;33.46;99.47;100009.83;109045;1270;23854;-82
2022/08/28 09:39:18;;;;;;;40.00;35.90;;;;;;;33.51;98.51;100012.59;109159;1270;22027;-81
2022/08/28 09:45:20;;;;;;;41.70;37.80;;;;;;;33.59;96.72;100014.81;108847;1270;21982;-81
2022/08/28 09:48:01;;;;;;;43.20;39.20;;;;;;;33.56;96.60;100014.32;108715;1276;22010;-82
2022/08/28 09:50:40;;;;;;;43.60;39.10;;;;;;;33.54;95.56;100014.48;109142;1270;21981;-81
2022/08/28 09:53:10;;;;;;;42.60;38.60;;;;;;;33.52;95.58;100015.26;109110;1270;24401;-82
2022/08/28 09:56:12;;;;;;;45.30;41.20;;;;;;;33.45;96.90;100018.85;109356;1268;21993;-83
2022/08/28 09:58:50;;;;;;;47.80;43.40;;;;;;;33.61;96.23;100018.80;109577;1265;22225;-82
2022/08/28 10:01:40;;;;;;;47.10;42.30;;;;;;;33.64;96.13;100020.81;109499;1267;23609;-82
2022/08/28 10:04:28;;;;;;;45.90;41.30;;;;;;;33.63;96.36;100021.63;109618;1264;23609;-82
2022/08/28 10:07:31;;;;;;;44.90;40.90;;;;;;;33.62;96.67;100024.81;109988;1261;23092;-81
2022/08/28 10:10:34;;;;;;;46.70;42.30;;;;;;;33.78;96.23;100025.17;110069;1262;23196;-82
2022/08/28 10:13:29;;;;;;;45.90;41.80;;;;;;;33.78;96.14;100025.02;109480;1265;21977;-81
2022/08/28 10:16:45;;;;;;;45.40;41.20;;;;;;;33.84;97.32;100027.14;109342;1268;23468;-82
2022/08/28 10:19:58;;;;;;;43.40;39.20;;;;;;;33.98;96.46;100029.83;108951;1273;21988;-81
2022/08/28 10:22:51;;;;;;;47.10;42.50;;;;;;;34.04;94.83;100030.67;108586;1276;22001;-82
2022/08/28 10:25:42;;;;;;;46.40;42.20;;;;;;;34.13;94.77;100027.30;108514;1276;21998;-82
2022/08/28 10:29:06;;;;;;;45.20;41.00;;;;;;;34.15;92.03;100028.16;108663;1276;21992;-81
2022/08/28 10:31:49;;;;;;;47.80;43.10;;;;;;;34.09;92.86;100023.91;108263;1282;22176;-81
2022/08/28 10:34:55;;;;;;;44.70;40.30;;;;;;;34.14;93.92;100028.74;108394;1282;22056;-81
2022/08/28 10:38:15;;;;;;;45.20;41.10;;;;;;;34.15;90.98;100026.12;108389;1279;22210;-82
2022/08/28 10:41:13;;;;;;;48.70;43.70;;;;;;;34.18;92.72;100028.04;108772;1273;23806;-81
2022/08/28 10:43:49;;;;;;;47.40;41.40;;;;;;;34.35;91.34;100028.16;108726;1276;22003;-81
2022/08/28 10:46:27;;;;;;;47.40;43.00;;;;;;;34.36;90.63;100024.79;108725;1276;23704;-81
2022/08/28 10:49:07;;;;;;;45.30;40.90;;;;;;;34.33;88.63;100025.30;108671;1273;23064;-82
2022/08/28 10:52:21;;;;;;;46.50;41.70;;;;;;;34.17;88.79;100025.65;108778;1276;22009;-82
2022/08/28 10:55:17;;;;;;;45.10;40.90;;;;;;;34.17;90.09;100023.98;108406;1282;22030;-83
2022/08/28 10:58:12;;;;;;;43.50;39.40;;;;;;;34.20;91.46;100024.63;108629;1277;22077;-82
2022/08/28 11:01:05;;;;;;;43.20;39.00;;;;;;;34.35;91.97;100024.28;108701;1276;23599;-83
2022/08/28 11:03:49;;;;;;;46.10;41.40;;;;;;;34.35;91.47;100022.48;108969;1273;21976;-82
2022/08/28 11:06:46;;;;;;;44.10;39.90;;;;;;;34.45;90.21;100020.63;108979;1267;22062;-81
2022/08/28 11:09:46;;;;;;;44.00;39.80;;;;;;;34.48;87.48;100020.12;109282;1264;22755;-82
2022/08/28 11:12:15;;;;;;;46.30;41.60;;;;;;;34.61;89.17;100019.35;110057;1261;21986;-84
2022/08/28 11:15:20;;;;;;;47.70;43.10;;;;;;;34.71;88.17;100021.42;110854;1260;22154;-81
2022/08/28 11:18:17;;;;;;;43.80;39.80;;;;;;;34.82;87.00;100023.16;110036;1261;21995;-81
2022/08/28 11:21:27;;;;;;;44.30;40.00;;;;;;;34.80;86.06;100020.25;109450;1267;21947;-82
2022/08/28 11:24:41;;;;;;;44.30;40.10;;;;;;;34.94;86.54;100021.83;109464;1267;21980;-82
2022/08/28 11:32:35;;;;;;;42.90;38.60;;;;;;;35.19;85.23;100022.72;110386;1258;21991;-82
2022/08/28 11:35:28;;;;;;;44.40;40.20;;;;;;;35.39;85.01;100028.48;110216;1260;24324;-82
2022/08/28 11:37:57;;;;;;;42.20;38.20;;;;;;;35.47;83.24;100027.41;109565;1265;22024;-83
2022/08/28 11:40:32;;;;;;;40.40;36.30;;;;;;;35.47;81.25;100027.88;109694;1260;23779;-82
2022/08/28 11:43:13;;;;;;;41.50;37.80;;;;;;;35.55;81.02;100024.53;109643;1261;23587;-82
2022/08/28 11:45:44;;;;;;;37.00;33.60;;;;;;;35.81;81.30;100021.83;109373;1267;21989;-81
2022/08/28 11:48:21;;;;;;;39.00;35.00;;;;;;;35.98;80.95;100015.30;109066;1273;22765;-81
2022/08/28 11:51:08;;;;;;;37.60;34.40;;;;;;;36.15;78.34;100011.65;109089;1273;21979;-85
2022/08/28 11:54:40;;;;;;;34.00;30.50;;;;;;;36.35;76.52;100014.17;109035;1273;22008;-82
2022/08/28 11:57:30;;;;;;;30.90;28.20;;;;;;;36.46;75.69;100015.13;109195;1268;23772;-81
2022/08/28 12:00:22;;;;;;;30.60;27.60;;;;;;;36.11;76.22;100012.53;109372;1270;23858;-81
2022/08/28 12:03:37;;;;;;;31.00;28.10;;;;;;;36.14;74.95;100014.61;109074;1273;22037;-82
2022/08/28 12:06:07;;;;;;;27.30;24.80;;;;;;;36.19;74.36;100015.84;109466;1265;23670;-82
2022/08/28 12:08:43;;;;;;;;;;;;;;;36.22;74.41;100013.11;109613;1265;22254;-80
2022/08/28 12:11:40;;;;;;;22.90;20.60;;;;;;;36.14;73.95;100014.29;109944;1263;21969;-81